Time;durP1;ratioP1;P1;durP2;ratioP2;P2;SDS_P1;SDS_P2;PMS_P1;PMS_P2;Temp;Humidity;BMP_temperature;BMP_pressure;BME280_temperature;BME280_humidity;BME280_pressure;Samples;Min_cycle;Max_cycle;Signal;HPM_P1;HPM_P2
2021/10/04 00:00:53;;;;;;;3.65;1.30;;;;;;;19.27;54.09;99900.00;4992180;28;20033;-58
2021/10/04 00:03:18;;;;;;;2.90;1.10;;;;;;;19.28;54.20;99900.81;5033050;28;20119;-58
2021/10/04 00:05:44;;;;;;;3.45;1.00;;;;;;;19.28;54.11;99908.78;5003153;28;20054;-59
2021/10/04 00:08:09;;;;;;;2.20;0.80;;;;;;;19.27;53.84;99901.84;4995369;28;20029;-58
2021/10/04 00:10:35;;;;;;;3.40;1.20;;;;;;;19.26;53.92;99909.00;5012996;28;20430;-59
2021/10/04 00:13:00;;;;;;;3.00;1.00;;;;;;;19.26;53.98;99909.00;5026385;28;20047;-58
2021/10/04 00:15:29;;;;;;;3.70;1.25;;;;;;;19.25;54.17;99912.69;5031972;28;20096;-59
2021/10/04 00:17:54;;;;;;;2.38;1.30;;;;;;;19.25;54.15;99910.03;4998772;28;20072;-58
2021/10/04 00:20:20;;;;;;;2.72;1.00;;;;;;;19.26;54.07;99918.81;5032012;28;20057;-60
2021/10/04 00:22:46;;;;;;;4.00;1.00;;;;;;;19.25;53.97;99909.19;5014681;28;20132;-59
2021/10/04 00:25:12;;;;;;;2.70;1.20;;;;;;;19.24;53.83;99920.84;5014256;28;20444;-59
2021/10/04 00:27:38;;;;;;;1.90;0.90;;;;;;;19.24;53.77;99921.66;5031829;28;20042;-58
2021/10/04 00:30:06;;;;;;;2.65;1.08;;;;;;;19.24;54.21;99916.34;5014217;28;20037;-58
2021/10/04 00:32:34;;;;;;;4.18;1.08;;;;;;;19.23;54.08;99922.69;5014606;28;20049;-58
2021/10/04 00:34:59;;;;;;;3.47;1.23;;;;;;;19.23;53.85;99925.38;5030607;28;20029;-58
2021/10/04 00:37:25;;;;;;;1.48;0.95;;;;;;;19.23;53.75;99929.88;5031586;28;20565;-58
2021/10/04 00:39:50;;;;;;;3.33;1.00;;;;;;;19.23;54.04;99929.88;5014294;28;20391;-59
2021/10/04 00:42:16;;;;;;;2.85;1.20;;;;;;;19.22;54.04;99928.25;5031883;28;20025;-58
2021/10/04 00:44:41;;;;;;;3.00;1.00;;;;;;;19.21;53.56;99930.09;5013021;28;20037;-58
2021/10/04 00:47:07;;;;;;;2.63;0.93;;;;;;;19.21;54.05;99937.25;5014056;28;20052;-59
2021/10/04 00:49:32;;;;;;;4.03;1.40;;;;;;;19.22;53.85;99946.84;5031782;28;20033;-58
2021/10/04 00:51:57;;;;;;;4.10;1.15;;;;;;;19.20;53.71;99939.09;5031848;28;20521;-59
2021/10/04 00:54:23;;;;;;;3.20;1.10;;;;;;;19.20;53.97;99941.75;5031875;28;20056;-61
2021/10/04 00:56:48;;;;;;;2.67;1.02;;;;;;;19.20;53.82;99940.94;5028320;28;20042;-59
2021/10/04 00:59:14;;;;;;;3.47;0.90;;;;;;;19.19;53.71;99936.66;5011355;28;20472;-59
2021/10/04 01:01:40;;;;;;;4.65;1.00;;;;;;;19.19;53.94;99939.31;5011659;28;20037;-59
2021/10/04 01:04:05;;;;;;;3.67;1.00;;;;;;;19.19;53.76;99940.13;4994343;28;20038;-60
2021/10/04 01:06:31;;;;;;;2.10;0.90;;;;;;;19.20;53.42;99947.06;5008158;28;20049;-59
2021/10/04 01:08:57;;;;;;;2.85;1.05;;;;;;;19.19;53.65;99949.94;5027573;28;20109;-59
2021/10/04 01:11:23;;;;;;;3.17;1.08;;;;;;;19.19;53.52;99955.25;4994355;28;20084;-59
2021/10/04 01:13:49;;;;;;;3.58;1.25;;;;;;;19.19;53.90;99955.25;4993729;28;20057;-59
2021/10/04 01:16:15;;;;;;;2.60;0.82;;;;;;;19.17;53.53;99960.78;4993316;28;20033;-59
2021/10/04 01:18:42;;;;;;;2.10;1.23;;;;;;;19.18;53.55;99951.78;5011712;28;20139;-59
2021/10/04 01:21:07;;;;;;;2.22;0.80;;;;;;;19.17;53.88;99952.81;4997495;28;20060;-58
2021/10/04 01:23:33;;;;;;;2.08;0.80;;;;;;;19.18;53.65;99964.28;5030786;28;20033;-59
2021/10/04 01:25:59;;;;;;;2.92;0.73;;;;;;;19.17;53.54;99957.31;5031266;28;20046;-59
2021/10/04 01:28:26;;;;;;;1.77;0.80;;;;;;;19.17;53.69;99959.97;5031025;28;20034;-59
2021/10/04 01:30:52;;;;;;;2.80;0.90;;;;;;;19.17;53.41;99957.31;5015728;28;20463;-59
2021/10/04 01:33:18;;;;;;;3.00;0.80;;;;;;;19.17;53.73;99962.66;5012767;28;20100;-59
2021/10/04 01:35:43;;;;;;;2.50;0.90;;;;;;;19.15;53.19;99961.00;5030858;28;20049;-59
2021/10/04 01:38:09;;;;;;;2.17;1.02;;;;;;;19.15;53.36;99966.34;5031063;28;20094;-59
2021/10/04 01:40:34;;;;;;;2.65;1.10;;;;;;;19.15;53.33;99962.84;5030252;28;20125;-59
2021/10/04 01:43:01;;;;;;;3.30;1.00;;;;;;;19.14;53.37;99967.38;5012743;28;20041;-58
2021/10/04 01:45:28;;;;;;;3.85;0.90;;;;;;;19.15;53.37;99958.34;5010841;28;20437;-59
2021/10/04 01:47:59;;;;;;;2.28;0.75;;;;;;;19.15;53.18;99966.34;5010157;28;20491;-59
2021/10/04 01:50:26;;;;;;;2.55;0.82;;;;;;;19.15;53.17;99966.34;5010397;28;20065;-59
2021/10/04 01:52:52;;;;;;;2.25;0.95;;;;;;;19.15;53.14;99969.00;5009692;28;20030;-59
2021/10/04 01:55:17;;;;;;;2.13;0.80;;;;;;;19.15;53.60;99971.66;5010941;28;20499;-60
2021/10/04 01:57:43;;;;;;;4.03;0.90;;;;;;;19.14;53.35;99967.38;4975891;28;20029;-59
2021/10/04 02:00:12;;;;;;;3.10;0.80;;;;;;;19.14;53.35;99967.38;5010523;28;20069;-59
2021/10/04 02:02:41;;;;;;;2.13;0.80;;;;;;;19.17;53.24;99970.63;5009730;28;20541;-59
2021/10/04 02:05:07;;;;;;;2.58;0.90;;;;;;;19.14;53.25;99967.38;5022194;28;20080;-59
2021/10/04 02:07:34;;;;;;;2.28;0.80;;;;;;;19.14;53.49;99954.06;5011439;28;20026;-59
2021/10/04 02:10:00;;;;;;;1.20;0.63;;;;;;;19.14;53.25;99959.38;5011908;28;20087;-60
2021/10/04 02:12:26;;;;;;;1.67;0.82;;;;;;;19.14;53.21;99962.03;5011007;28;20037;-59
2021/10/04 02:14:51;;;;;;;2.17;0.95;;;;;;;19.14;53.25;99956.72;5023873;28;20430;-59
2021/10/04 02:17:16;;;;;;;1.67;0.80;;;;;;;19.13;53.20;99951.63;4992105;28;20487;-59
2021/10/04 02:19:42;;;;;;;2.42;0.88;;;;;;;19.14;53.21;99961.22;5009860;28;20105;-59
2021/10/04 02:22:07;;;;;;;1.90;0.80;;;;;;;19.13;53.25;99960.41;5010094;28;20080;-59
2021/10/04 02:24:33;;;;;;;1.63;0.82;;;;;;;19.13;53.08;99960.41;4993392;28;20497;-59
2021/10/04 02:26:58;;;;;;;1.80;0.70;;;;;;;19.14;53.13;99955.91;5028283;28;20414;-60
2021/10/04 02:29:24;;;;;;;1.65;0.73;;;;;;;19.13;52.98;99962.25;5012126;28;20088;-60
2021/10/04 02:31:49;;;;;;;2.17;0.80;;;;;;;19.12;53.22;99956.13;5011692;28;20041;-59
2021/10/04 02:34:15;;;;;;;2.35;0.70;;;;;;;19.13;53.35;99959.59;5029821;28;20042;-59
2021/10/04 02:36:40;;;;;;;2.92;1.00;;;;;;;19.13;53.28;99956.94;5008482;28;20044;-60
2021/10/04 02:39:06;;;;;;;2.53;1.00;;;;;;;19.13;52.90;99956.94;4992426;28;20034;-59
2021/10/04 02:41:32;;;;;;;1.98;1.15;;;;;;;19.12;53.00;99960.63;5009862;28;20492;-59
2021/10/04 02:43:57;;;;;;;1.50;0.70;;;;;;;19.13;53.11;99962.25;4991973;28;20065;-59
2021/10/04 02:46:23;;;;;;;2.38;0.73;;;;;;;19.13;53.02;99963.06;5010200;28;20062;-60
2021/10/04 02:48:48;;;;;;;1.40;0.80;;;;;;;19.12;52.97;99960.63;4978505;28;20037;-59
2021/10/04 02:51:14;;;;;;;2.47;0.77;;;;;;;19.13;52.90;99959.59;5012279;28;20556;-60
2021/10/04 02:53:39;;;;;;;2.10;1.10;;;;;;;19.10;53.03;99952.06;4995212;28;20042;-60
2021/10/04 02:56:05;;;;;;;2.42;0.82;;;;;;;19.12;53.08;99948.16;5029643;28;20026;-60
2021/10/04 02:58:33;;;;;;;2.10;0.70;;;;;;;19.12;53.02;99957.97;5029030;28;20093;-62
2021/10/04 03:01:00;;;;;;;2.38;0.93;;;;;;;19.11;53.26;99957.16;5005669;28;20038;-60
2021/10/04 03:03:25;;;;;;;3.20;0.80;;;;;;;19.11;52.94;99954.50;4992406;28;20112;-60
2021/10/04 03:05:51;;;;;;;1.80;0.73;;;;;;;19.10;52.91;99952.88;4991793;28;20145;-61
2021/10/04 03:08:17;;;;;;;1.73;0.70;;;;;;;19.10;53.07;99949.41;5010267;28;20048;-60
2021/10/04 03:10:43;;;;;;;2.33;0.95;;;;;;;19.09;53.13;99940.63;5010536;28;20034;-59
2021/10/04 03:13:08;;;;;;;2.15;0.70;;;;;;;19.10;53.14;99947.56;5014137;28;20112;-60
2021/10/04 03:15:35;;;;;;;1.27;0.80;;;;;;;19.10;53.33;99952.06;5011017;28;20037;-60
2021/10/04 03:18:00;;;;;;;1.55;0.85;;;;;;;19.10;53.01;99960.03;5029570;28;20036;-60
2021/10/04 03:20:26;;;;;;;2.50;0.80;;;;;;;19.09;52.86;99950.41;4995315;28;20465;-60
2021/10/04 03:22:54;;;;;;;1.92;0.80;;;;;;;19.09;53.33;99953.91;5029215;28;20041;-59
2021/10/04 03:25:23;;;;;;;1.80;0.60;;;;;;;19.10;53.33;99952.06;5000778;28;20410;-60
2021/10/04 03:27:48;;;;;;;2.13;0.80;;;;;;;19.10;53.19;99962.69;4991096;28;20026;-60
2021/10/04 03:30:14;;;;;;;1.40;0.75;;;;;;;19.10;52.88;99960.03;4991532;28;20048;-60
2021/10/04 03:32:40;;;;;;;1.63;0.70;;;;;;;19.09;53.01;99961.03;4991484;28;20037;-60
2021/10/04 03:35:07;;;;;;;2.08;0.90;;;;;;;19.09;53.41;99963.69;5016501;28;20474;-60
2021/10/04 03:37:33;;;;;;;1.90;0.77;;;;;;;19.09;53.26;99955.72;5029312;28;20049;-60
2021/10/04 03:39:58;;;;;;;1.23;0.60;;;;;;;19.08;52.88;99965.53;5029231;28;20038;-60
2021/10/04 03:42:24;;;;;;;2.13;0.65;;;;;;;19.09;52.94;99966.34;5029242;28;20037;-60
2021/10/04 03:44:49;;;;;;;1.90;0.63;;;;;;;19.08;52.87;99972.69;5010674;28;20497;-60
2021/10/04 03:47:15;;;;;;;2.35;0.80;;;;;;;19.08;52.87;99967.38;5018355;28;20407;-60
2021/10/04 03:49:40;;;;;;;2.38;1.02;;;;;;;19.09;52.95;99974.34;4991204;28;20121;-60
2021/10/04 03:52:06;;;;;;;1.52;0.70;;;;;;;19.08;52.79;99978.84;4975532;28;20041;-60
2021/10/04 03:54:31;;;;;;;1.40;1.00;;;;;;;19.08;53.18;99978.84;5009254;28;20045;-60
2021/10/04 03:56:57;;;;;;;1.45;0.70;;;;;;;19.08;52.93;99978.84;4974863;28;20038;-60
2021/10/04 03:59:22;;;;;;;1.10;0.60;;;;;;;19.08;52.98;99989.47;5002740;28;20050;-60
2021/10/04 04:01:48;;;;;;;1.55;0.60;;;;;;;19.08;52.94;99981.50;5028922;28;20485;-60
2021/10/04 04:04:13;;;;;;;1.90;0.70;;;;;;;19.08;53.11;99984.16;5010925;28;20041;-60
2021/10/04 04:06:41;;;;;;;1.73;0.75;;;;;;;19.08;52.98;99981.50;5011412;28;20722;-60
2021/10/04 04:09:06;;;;;;;1.55;0.70;;;;;;;19.08;52.65;99975.34;5028913;28;20037;-57
2021/10/04 04:11:32;;;;;;;1.45;0.85;;;;;;;19.07;52.92;99973.72;5014879;28;20041;-57
2021/10/04 04:13:57;;;;;;;1.35;0.50;;;;;;;19.07;52.85;99974.53;5008341;28;20045;-57
2021/10/04 04:16:23;;;;;;;2.85;1.08;;;;;;;19.07;52.94;99973.72;5008994;28;20033;-57
2021/10/04 04:18:48;;;;;;;1.88;0.75;;;;;;;19.06;52.77;99974.75;5008560;28;20046;-57
2021/10/04 04:21:14;;;;;;;1.05;0.57;;;;;;;19.06;53.08;99972.91;4991483;28;20037;-57
2021/10/04 04:23:39;;;;;;;1.30;0.70;;;;;;;19.05;52.98;99979.25;5021522;28;20171;-58
2021/10/04 04:26:05;;;;;;;2.35;0.70;;;;;;;19.06;53.11;99982.75;5028468;28;20053;-57
2021/10/04 04:28:32;;;;;;;1.55;0.60;;;;;;;19.06;53.13;99980.91;5028801;28;20163;-58
2021/10/04 04:30:58;;;;;;;1.35;0.70;;;;;;;19.06;53.00;99985.41;5010187;28;20049;-57
2021/10/04 04:33:23;;;;;;;1.45;0.57;;;;;;;19.06;53.04;99988.06;5010758;28;20059;-58
2021/10/04 04:35:49;;;;;;;3.05;0.70;;;;;;;19.05;52.96;99984.59;5011156;28;20420;-57
2021/10/04 04:38:15;;;;;;;1.80;0.65;;;;;;;19.07;52.85;99989.69;5012619;28;20406;-58
2021/10/04 04:40:41;;;;;;;2.10;0.70;;;;;;;19.05;53.04;99984.59;5012087;28;20030;-57
2021/10/04 04:43:06;;;;;;;1.42;0.57;;;;;;;19.06;52.80;99999.50;5022213;28;20056;-57
2021/10/04 04:45:32;;;;;;;1.50;0.70;;;;;;;19.06;53.08;99999.50;5016776;28;20052;-57
2021/10/04 04:47:57;;;;;;;1.70;0.70;;;;;;;19.05;52.80;99997.88;5012177;28;20034;-57
2021/10/04 04:50:23;;;;;;;1.02;0.55;;;;;;;19.05;52.72;100000.53;4978512;28;20034;-57
2021/10/04 04:52:49;;;;;;;2.22;0.70;;;;;;;19.05;52.99;100008.50;4994421;28;20117;-57
2021/10/04 04:55:14;;;;;;;1.70;0.80;;;;;;;19.06;53.01;100009.31;4978299;28;20070;-58
2021/10/04 04:57:40;;;;;;;2.40;0.65;;;;;;;19.06;53.08;100001.34;5026510;28;20132;-58
2021/10/04 05:00:07;;;;;;;1.98;0.70;;;;;;;19.05;52.98;100003.19;5031792;28;20072;-58
2021/10/04 05:02:36;;;;;;;1.45;0.70;;;;;;;19.05;52.86;100005.03;5023602;28;20037;-57
2021/10/04 05:05:06;;;;;;;1.27;0.65;;;;;;;19.04;52.98;100006.88;5011816;28;20034;-57
2021/10/04 05:07:32;;;;;;;1.65;0.50;;;;;;;19.04;52.90;100006.88;4994439;28;20026;-57
2021/10/04 05:09:58;;;;;;;1.85;0.80;;;;;;;19.04;52.79;100004.22;5009600;28;20044;-58
2021/10/04 05:12:23;;;;;;;1.70;0.63;;;;;;;19.03;53.05;100007.91;5031410;28;20411;-57
2021/10/04 05:14:48;;;;;;;1.08;0.60;;;;;;;19.04;53.04;100012.19;5030741;28;20038;-60
2021/10/04 05:17:15;;;;;;;1.25;0.60;;;;;;;19.03;53.04;100013.22;5031696;28;20151;-60
2021/10/04 05:19:40;;;;;;;1.55;0.52;;;;;;;19.03;52.66;100012.41;5031590;28;20065;-61
2021/10/04 05:22:06;;;;;;;1.67;0.60;;;;;;;19.04;52.71;100014.03;5011400;28;20471;-60
2021/10/04 05:24:31;;;;;;;1.02;0.50;;;;;;;19.03;52.65;100012.41;5011851;28;20049;-61
2021/10/04 05:26:57;;;;;;;1.90;0.68;;;;;;;19.02;52.78;100018.75;5011079;28;20109;-60
2021/10/04 05:29:24;;;;;;;1.20;0.57;;;;;;;19.03;52.61;100021.19;5011228;28;20121;-60
2021/10/04 05:31:49;;;;;;;0.93;0.50;;;;;;;19.03;52.83;100015.06;4994189;28;20139;-60
2021/10/04 05:34:15;;;;;;;1.58;0.60;;;;;;;19.02;52.69;100019.56;5013261;28;20143;-61
2021/10/04 05:36:40;;;;;;;1.27;0.50;;;;;;;19.01;53.02;100023.25;5031396;28;20033;-60
2021/10/04 05:39:06;;;;;;;1.98;0.85;;;;;;;19.02;52.62;100029.38;4996883;28;20034;-60
2021/10/04 05:41:31;;;;;;;1.40;0.68;;;;;;;19.02;52.73;100027.53;5030657;28;20556;-60
2021/10/04 05:43:57;;;;;;;1.55;0.63;;;;;;;19.01;52.70;100031.22;5011411;28;20414;-61
2021/10/04 05:46:22;;;;;;;1.73;0.60;;;;;;;19.00;52.98;100026.94;4995132;28;20038;-61
2021/10/04 05:48:48;;;;;;;1.35;0.60;;;;;;;19.01;52.85;100028.56;4976039;28;20040;-60
2021/10/04 05:51:13;;;;;;;1.35;0.63;;;;;;;19.00;52.90;100032.25;4993230;28;20703;-60
2021/10/04 05:53:39;;;;;;;1.13;0.55;;;;;;;19.01;52.84;100025.09;5011919;28;20491;-61
2021/10/04 05:56:04;;;;;;;1.65;0.60;;;;;;;18.99;52.62;100027.16;4995186;28;20136;-60
2021/10/04 05:58:30;;;;;;;1.75;0.50;;;;;;;18.99;52.59;100024.50;4979718;28;20077;-60
2021/10/04 06:00:55;;;;;;;1.98;0.60;;;;;;;18.99;52.55;100029.81;5029990;28;20038;-61
2021/10/04 06:03:21;;;;;;;2.15;0.60;;;;;;;18.99;52.64;100033.28;5030531;28;20502;-60
2021/10/04 06:05:46;;;;;;;1.40;0.65;;;;;;;18.99;52.76;100025.31;5012084;28;20132;-61
2021/10/04 06:08:12;;;;;;;1.90;0.60;;;;;;;19.00;52.70;100036.75;5024056;28;20044;-61
2021/10/04 06:10:37;;;;;;;2.05;0.60;;;;;;;18.99;52.71;100032.47;4960333;28;20044;-60
2021/10/04 06:13:03;;;;;;;1.60;0.80;;;;;;;18.99;52.87;100038.59;5009562;28;20459;-60
2021/10/04 06:15:29;;;;;;;1.23;0.70;;;;;;;18.98;52.80;100036.97;5010229;28;20038;-60
2021/10/04 06:17:55;;;;;;;1.58;0.70;;;;;;;18.98;52.55;100039.63;5010631;28;20049;-60
2021/10/04 06:20:21;;;;;;;1.88;0.50;;;;;;;18.98;52.68;100034.31;5017681;28;20034;-60
2021/10/04 06:22:47;;;;;;;2.75;0.85;;;;;;;18.99;52.39;100040.44;5012292;28;20030;-61
2021/10/04 06:25:15;;;;;;;1.60;0.60;;;;;;;18.98;52.51;100047.59;5030351;28;20060;-60
2021/10/04 06:27:41;;;;;;;1.08;0.52;;;;;;;18.98;52.52;100044.94;5029735;28;20044;-60
2021/10/04 06:30:08;;;;;;;1.50;0.70;;;;;;;18.98;52.56;100044.94;5029494;28;20033;-60
2021/10/04 06:32:35;;;;;;;2.17;1.05;;;;;;;18.98;52.34;100049.44;5022269;28;20033;-60
2021/10/04 06:35:00;;;;;;;2.25;0.60;;;;;;;18.98;52.30;100044.13;4992316;28;20372;-60
2021/10/04 06:37:26;;;;;;;1.05;0.50;;;;;;;18.97;52.30;100051.28;4992802;28;20041;-60
2021/10/04 06:39:51;;;;;;;1.70;0.50;;;;;;;18.97;52.74;100048.63;5009780;28;20041;-61
2021/10/04 06:42:17;;;;;;;1.63;0.50;;;;;;;18.97;52.53;100048.63;5009868;28;20045;-61
2021/10/04 06:44:43;;;;;;;2.00;0.60;;;;;;;18.96;52.75;100040.88;4998685;28;20041;-60
2021/10/04 06:47:09;;;;;;;1.23;0.70;;;;;;;18.97;52.70;100055.78;5012006;28;20055;-60
2021/10/04 06:49:35;;;;;;;1.95;0.70;;;;;;;18.96;52.73;100052.31;5029780;28;20124;-60
2021/10/04 06:52:02;;;;;;;2.13;0.70;;;;;;;18.97;52.69;100061.09;5011663;28;20541;-61
2021/10/04 06:54:27;;;;;;;2.00;1.05;;;;;;;18.96;52.49;100059.47;5007739;28;20080;-60
2021/10/04 06:56:53;;;;;;;1.88;0.52;;;;;;;18.96;52.82;100059.47;5009699;28;20496;-61
2021/10/04 06:59:18;;;;;;;2.78;0.70;;;;;;;18.95;52.39;100061.31;5009127;28;20058;-60
2021/10/04 07:01:44;;;;;;;1.15;0.50;;;;;;;18.97;52.62;100066.41;5010986;28;20520;-60
2021/10/04 07:04:09;;;;;;;1.35;0.60;;;;;;;18.96;52.50;100073.59;4991702;28;20048;-60
2021/10/04 07:06:35;;;;;;;1.02;0.50;;;;;;;18.96;52.74;100076.25;5009213;28;20046;-61
2021/10/04 07:09:00;;;;;;;2.53;0.90;;;;;;;18.95;52.63;100074.59;5012938;28;20034;-61
2021/10/04 07:11:26;;;;;;;2.58;0.68;;;;;;;18.95;52.62;100068.47;4978871;28;20471;-60
2021/10/04 07:13:51;;;;;;;2.20;0.70;;;;;;;18.95;52.83;100073.78;5009218;28;20092;-61
2021/10/04 07:16:17;;;;;;;5.53;0.82;;;;;;;18.95;53.11;100071.94;5009299;28;20032;-61
2021/10/04 07:18:43;;;;;;;4.07;0.70;;;;;;;18.96;52.94;100081.56;5023980;28;20437;-60
2021/10/04 07:21:12;;;;;;;4.15;0.70;;;;;;;18.95;53.22;100074.59;5002572;28;20178;-61
2021/10/04 07:23:38;;;;;;;5.05;0.80;;;;;;;18.96;53.53;100078.91;5009706;28;20105;-60
2021/10/04 07:26:05;;;;;;;6.07;0.70;;;;;;;18.97;53.75;100079.72;4975196;28;20121;-61
2021/10/04 07:28:30;;;;;;;4.72;0.90;;;;;;;18.95;53.53;100082.59;4992498;28;20048;-61
2021/10/04 07:30:56;;;;;;;3.28;0.85;;;;;;;18.96;53.67;100086.06;4975215;28;20057;-59
2021/10/04 07:33:22;;;;;;;6.45;0.95;;;;;;;18.96;53.93;100086.88;4991730;28;20049;-59
2021/10/04 07:35:50;;;;;;;6.30;1.10;;;;;;;18.96;54.08;100078.09;4992542;28;20403;-59
2021/10/04 07:38:16;;;;;;;10.10;1.55;;;;;;;18.96;53.91;100091.38;5008416;28;20025;-61
2021/10/04 07:40:41;;;;;;;5.22;0.85;;;;;;;18.96;54.16;100078.91;5025007;28;20072;-60
2021/10/04 07:43:07;;;;;;;4.13;0.82;;;;;;;18.95;53.92;100085.25;5008639;28;20391;-60
2021/10/04 07:45:34;;;;;;;6.95;1.30;;;;;;;18.94;54.03;100091.59;4991344;28;20058;-59
2021/10/04 07:48:00;;;;;;;12.73;1.27;;;;;;;18.93;54.13;100083.78;4991782;28;20129;-61
2021/10/04 07:50:26;;;;;;;13.95;1.60;;;;;;;18.95;54.44;100084.44;5009190;28;20117;-60
2021/10/04 07:52:51;;;;;;;10.98;1.10;;;;;;;18.95;54.56;100087.91;4992170;28;20061;-60
2021/10/04 07:55:17;;;;;;;4.88;1.27;;;;;;;18.96;54.32;100094.84;5018589;28;20044;-60
2021/10/04 07:57:48;;;;;;;6.68;1.50;;;;;;;18.95;54.51;100090.56;5027464;28;20171;-61
2021/10/04 08:00:14;;;;;;;9.55;1.30;;;;;;;18.96;54.27;100099.34;5027300;28;20033;-60
2021/10/04 08:02:40;;;;;;;9.32;1.27;;;;;;;18.96;54.11;100100.16;5028767;28;20499;-60
2021/10/04 08:05:06;;;;;;;6.32;1.17;;;;;;;18.96;53.81;100110.78;5017488;28;20065;-60
2021/10/04 08:07:31;;;;;;;5.07;1.25;;;;;;;18.94;53.50;100107.53;5017271;28;20196;-61
2021/10/04 08:09:57;;;;;;;10.15;1.30;;;;;;;18.87;53.12;100098.75;5023588;28;20180;-60
2021/10/04 08:12:25;;;;;;;6.30;1.17;;;;;;;18.83;52.38;100097.53;4995284;28;20398;-60
2021/10/04 08:14:51;;;;;;;8.95;1.40;;;;;;;18.79;52.29;100107.78;5004963;28;20071;-60
2021/10/04 08:17:16;;;;;;;4.65;1.02;;;;;;;18.70;51.84;100098.38;4992381;28;20038;-60
2021/10/04 08:19:42;;;;;;;8.10;1.15;;;;;;;18.65;51.59;100103.50;5009937;28;20387;-60
2021/10/04 08:22:07;;;;;;;6.00;1.10;;;;;;;18.58;51.32;100102.66;5010700;28;20434;-60
2021/10/04 08:24:32;;;;;;;10.77;1.40;;;;;;;18.53;51.29;100105.13;5011273;28;20030;-61
2021/10/04 08:26:58;;;;;;;4.03;1.02;;;;;;;18.50;50.99;100101.06;5010486;28;20061;-61
2021/10/04 08:29:23;;;;;;;6.05;1.30;;;;;;;18.45;51.21;100095.53;5011391;28;20026;-60
2021/10/04 08:31:50;;;;;;;3.47;1.20;;;;;;;18.43;50.62;100104.72;5012839;28;20042;-60
2021/10/04 08:34:15;;;;;;;7.50;1.23;;;;;;;18.41;51.06;100102.28;5012238;28;20546;-60
2021/10/04 08:36:40;;;;;;;6.35;1.08;;;;;;;18.39;50.71;100099.00;4995094;28;20168;-59
2021/10/04 08:39:07;;;;;;;4.45;1.00;;;;;;;18.38;50.34;100107.19;5012109;28;20475;-60
2021/10/04 08:41:34;;;;;;;5.65;1.33;;;;;;;18.35;50.59;100102.28;4995004;28;20049;-60
2021/10/04 08:44:03;;;;;;;6.35;1.10;;;;;;;18.34;50.12;100106.78;5011542;28;20069;-61
2021/10/04 08:46:29;;;;;;;8.40;1.17;;;;;;;18.35;50.38;100105.75;5012782;28;20483;-60
2021/10/04 08:48:55;;;;;;;11.27;1.33;;;;;;;18.33;50.29;100110.47;5012000;28;20042;-63
2021/10/04 08:51:22;;;;;;;4.85;1.00;;;;;;;18.31;50.18;100096.59;5012490;28;20117;-60
2021/10/04 08:53:48;;;;;;;6.28;1.33;;;;;;;18.32;49.80;100094.75;5012325;28;20087;-61
2021/10/04 08:56:14;;;;;;;6.25;0.90;;;;;;;18.31;49.79;100115.16;4978085;28;20391;-61
2021/10/04 08:58:40;;;;;;;3.35;0.90;;;;;;;18.34;49.89;100108.63;5011787;28;20065;-61
2021/10/04 09:01:06;;;;;;;4.82;0.93;;;;;;;18.34;49.72;100109.44;4993898;28;20033;-61
2021/10/04 09:03:45;;;;;;;4.43;1.40;;;;;;;18.33;50.05;100117.63;5012168;28;20029;-60
2021/10/04 09:06:33;;;;;;;5.72;1.00;;;;;;;18.32;49.70;100114.16;5011801;28;20037;-60
2021/10/04 09:09:12;;;;;;;6.28;1.10;;;;;;;18.36;49.94;100110.03;5011815;28;20064;-60
2021/10/04 09:11:48;;;;;;;4.30;0.90;;;;;;;18.36;49.52;100107.41;5012017;28;20040;-60
2021/10/04 09:14:16;;;;;;;5.45;1.20;;;;;;;18.41;49.66;100101.47;4993239;28;20034;-60
2021/10/04 09:16:54;;;;;;;4.47;1.08;;;;;;;18.41;49.83;100101.47;5011888;28;20126;-60
2021/10/04 09:19:32;;;;;;;5.00;1.25;;;;;;;18.45;49.53;100100.84;5011312;28;20109;-60
2021/10/04 09:22:17;;;;;;;5.28;0.98;;;;;;;18.43;49.47;100099.41;5011576;28;20038;-60
2021/10/04 09:25:02;;;;;;;6.80;1.00;;;;;;;18.44;49.62;100099.19;5011641;28;20033;-60
2021/10/04 09:27:44;;;;;;;4.75;1.35;;;;;;;18.49;49.63;100103.91;4993792;28;20395;-60
2021/10/04 09:30:11;;;;;;;4.70;1.50;;;;;;;18.52;49.67;100098.19;5011236;28;20037;-60
2021/10/04 09:32:41;;;;;;;5.05;1.05;;;;;;;18.53;49.49;100107.78;5011501;28;20110;-60
2021/10/04 09:35:13;;;;;;;5.82;1.08;;;;;;;18.51;49.69;100105.34;5010957;28;20036;-60
2021/10/04 09:37:39;;;;;;;4.68;1.10;;;;;;;18.53;49.47;100107.78;5011442;28;20108;-60
2021/10/04 09:40:06;;;;;;;4.20;1.15;;;;;;;18.52;49.35;100104.31;5011286;28;20046;-61
2021/10/04 09:42:39;;;;;;;5.10;1.73;;;;;;;18.52;49.51;100108.81;5010983;28;20034;-62
2021/10/04 09:45:05;;;;;;;6.78;1.40;;;;;;;18.55;49.84;100108.38;5010895;28;20042;-60
2021/10/04 09:47:35;;;;;;;7.32;1.48;;;;;;;18.55;49.55;100108.38;5011488;28;20069;-60
2021/10/04 09:50:15;;;;;;;4.03;0.90;;;;;;;18.56;49.75;100112.69;5011112;28;20034;-61
2021/10/04 09:52:52;;;;;;;9.98;1.75;;;;;;;18.56;49.79;100110.84;5011540;28;20120;-60
2021/10/04 09:55:22;;;;;;;4.03;1.20;;;;;;;18.58;49.76;100107.97;4993333;28;20813;-59
2021/10/04 09:57:57;;;;;;;6.25;1.30;;;;;;;18.60;49.95;100107.75;5010503;28;20041;-59
2021/10/04 10:00:23;;;;;;;5.53;1.27;;;;;;;18.63;49.96;100110.03;5010772;28;20029;-61
2021/10/04 10:02:54;;;;;;;6.82;1.38;;;;;;;18.65;49.77;100110.66;5011143;28;20034;-60
2021/10/04 10:05:26;;;;;;;6.07;1.23;;;;;;;18.64;50.00;100109.03;5010962;28;20456;-61
2021/10/04 10:07:52;;;;;;;5.82;1.35;;;;;;;18.65;49.67;100114.13;5011072;28;20045;-60
2021/10/04 10:10:18;;;;;;;5.47;1.42;;;;;;;18.66;50.06;100114.94;4993158;28;20373;-60
2021/10/04 10:12:44;;;;;;;9.00;1.63;;;;;;;18.65;49.72;100115.97;5011002;28;20112;-60
2021/10/04 10:15:20;;;;;;;9.98;1.50;;;;;;;18.62;49.73;100114.53;5010304;28;20172;-61
2021/10/04 10:17:47;;;;;;;7.13;1.30;;;;;;;18.64;49.65;100119.66;5010890;28;20037;-60
2021/10/04 10:20:20;;;;;;;5.80;1.30;;;;;;;18.64;49.76;100124.97;5010523;28;20108;-59
2021/10/04 10:22:53;;;;;;;9.68;1.63;;;;;;;18.66;49.61;100121.06;5010573;28;20038;-59
2021/10/04 10:25:37;;;;;;;9.20;1.60;;;;;;;18.62;49.63;100124.31;5010425;28;20386;-60
2021/10/04 10:28:07;;;;;;;7.63;1.23;;;;;;;18.66;49.48;100130.88;5010197;28;20026;-60
2021/10/04 10:30:33;;;;;;;5.10;1.20;;;;;;;18.65;49.67;100123.94;5010341;28;20116;-59
2021/10/04 10:33:00;;;;;;;8.40;1.38;;;;;;;18.66;49.74;100128.22;5010117;28;20117;-64
2021/10/04 10:35:54;;;;;;;5.70;1.80;;;;;;;18.58;49.67;100129.22;5010145;28;20042;-60
2021/10/04 10:38:56;;;;;;;5.55;1.35;;;;;;;18.60;50.03;100135.13;4993029;28;20075;-61
2021/10/04 10:41:22;;;;;;;9.82;2.10;;;;;;;18.64;50.07;100128.44;5010114;28;20049;-60
2021/10/04 10:44:09;;;;;;;8.18;2.30;;;;;;;18.62;50.54;100129.63;4992432;28;20034;-60
2021/10/04 10:46:53;;;;;;;8.30;1.73;;;;;;;18.62;50.86;100127.81;5010579;28;20072;-63
2021/10/04 10:49:55;;;;;;;15.07;1.92;;;;;;;18.63;50.92;100125.97;4992495;28;20037;-63
2021/10/04 10:52:23;;;;;;;11.48;2.20;;;;;;;18.66;50.92;100123.72;5010075;28;20075;-61
2021/10/04 10:54:52;;;;;;;9.82;2.00;;;;;;;18.67;51.06;100121.91;5010176;28;20046;-61
2021/10/04 10:57:17;;;;;;;8.30;1.42;;;;;;;18.66;51.04;100123.72;5009541;28;20033;-61
2021/10/04 10:59:43;;;;;;;8.20;2.10;;;;;;;18.65;51.07;100123.94;5009329;28;20388;-61
2021/10/04 11:02:48;;;;;;;7.00;1.75;;;;;;;18.56;50.73;100112.69;5009898;28;20034;-61
2021/10/04 11:05:38;;;;;;;12.23;1.88;;;;;;;18.56;51.04;100110.03;4992178;28;20438;-61
2021/10/04 11:08:09;;;;;;;8.02;1.63;;;;;;;18.60;51.04;100110.41;5009947;28;20417;-61
2021/10/04 11:10:56;;;;;;;6.45;1.23;;;;;;;18.59;50.63;100109.59;5010266;28;20156;-61
2021/10/04 11:13:22;;;;;;;6.07;1.35;;;;;;;18.57;50.47;100111.66;4995254;28;20683;-62
2021/10/04 11:15:48;;;;;;;7.57;1.88;;;;;;;18.55;50.41;100103.06;5009430;28;20061;-62
2021/10/04 11:18:13;;;;;;;6.85;1.50;;;;;;;18.55;50.59;100108.38;5009748;28;20116;-61
2021/10/04 11:20:39;;;;;;;7.13;1.50;;;;;;;18.56;50.54;100102.06;5009833;28;20033;-61
2021/10/04 11:23:14;;;;;;;8.15;1.35;;;;;;;18.51;50.15;100093.91;5009679;28;20471;-62
2021/10/04 11:25:51;;;;;;;6.45;1.20;;;;;;;18.49;50.01;100099.41;5009843;28;20041;-62
2021/10/04 11:28:19;;;;;;;9.70;2.00;;;;;;;18.52;50.15;100103.50;5009239;28;20038;-62
2021/10/04 11:31:01;;;;;;;9.68;1.67;;;;;;;18.49;49.83;100099.41;5009436;28;20034;-63